Barling, Arkansas
Current Conditions -  °F | °C
As of 6:53 AM on Friday 24 Oct 2014 (Local Time) from KFSM Reporting Station
Clear Clear  
Wind Chill: 52°   Ceiling: Unl
Heat Index: 52°   Visibility: 7mi
Dew Point: 50°   Wind: 3mph
Humidity: 93%   Direction: 70°ENE
Pressure: 30.14"   Gusts: NA
Location:  35.33°N, 94.3°W
Report Text: KFSM 241153Z 07003KT 7SM CLR 11/10 A3014 RMK AO2 SLP205 T01110100 10139 20111 50003
Loading
Personal Weather Stations






























Interactive Weather Map
Tropical Storm Tracking
New forecast layout! Learn more

10-Day Weather Forecast

Advertisements
Track Severe Weather on mobile